sensor_id;sensor_type;location;lat;lon;timestamp;P1;durP1;ratioP1;P2;durP2;ratioP2
6342;SDS011;3204;42.698;23.298;2023-02-28T00:00:12;16.60;;;12.90;;
6342;SDS011;3204;42.698;23.298;2023-02-28T00:02:42;15.97;;;13.07;;
6342;SDS011;3204;42.698;23.298;2023-02-28T00:05:09;15.87;;;13.50;;
6342;SDS011;3204;42.698;23.298;2023-02-28T00:07:36;15.60;;;13.17;;
6342;SDS011;3204;42.698;23.298;2023-02-28T00:10:02;19.03;;;13.20;;
6342;SDS011;3204;42.698;23.298;2023-02-28T00:12:29;19.97;;;13.87;;
6342;SDS011;3204;42.698;23.298;2023-02-28T00:14:54;17.77;;;13.63;;
6342;SDS011;3204;42.698;23.298;2023-02-28T00:17:20;17.33;;;13.07;;
6342;SDS011;3204;42.698;23.298;2023-02-28T00:19:48;16.73;;;13.00;;
6342;SDS011;3204;42.698;23.298;2023-02-28T00:22:18;15.43;;;12.67;;
6342;SDS011;3204;42.698;23.298;2023-02-28T00:24:45;20.43;;;13.67;;
6342;SDS011;3204;42.698;23.298;2023-02-28T00:27:12;18.40;;;13.17;;
6342;SDS011;3204;42.698;23.298;2023-02-28T00:29:37;15.33;;;11.83;;
6342;SDS011;3204;42.698;23.298;2023-02-28T00:32:03;16.67;;;12.50;;
6342;SDS011;3204;42.698;23.298;2023-02-28T00:34:29;14.80;;;11.20;;
6342;SDS011;3204;42.698;23.298;2023-02-28T00:36:55;15.53;;;11.70;;
6342;SDS011;3204;42.698;23.298;2023-02-28T00:39:20;15.73;;;12.27;;
6342;SDS011;3204;42.698;23.298;2023-02-28T00:41:46;19.47;;;13.60;;
6342;SDS011;3204;42.698;23.298;2023-02-28T00:44:11;19.63;;;14.63;;
6342;SDS011;3204;42.698;23.298;2023-02-28T00:46:37;24.10;;;15.13;;
6342;SDS011;3204;42.698;23.298;2023-02-28T00:49:03;25.03;;;16.77;;
6342;SDS011;3204;42.698;23.298;2023-02-28T00:51:28;22.07;;;15.40;;
6342;SDS011;3204;42.698;23.298;2023-02-28T00:53:53;25.77;;;16.77;;
6342;SDS011;3204;42.698;23.298;2023-02-28T00:56:19;25.47;;;17.30;;
6342;SDS011;3204;42.698;23.298;2023-02-28T00:58:45;28.53;;;16.77;;
6342;SDS011;3204;42.698;23.298;2023-02-28T01:01:10;27.03;;;17.60;;
6342;SDS011;3204;42.698;23.298;2023-02-28T01:03:36;26.00;;;17.10;;
6342;SDS011;3204;42.698;23.298;2023-02-28T01:06:01;26.17;;;17.60;;
6342;SDS011;3204;42.698;23.298;2023-02-28T01:08:27;24.90;;;16.63;;
6342;SDS011;3204;42.698;23.298;2023-02-28T01:10:52;25.77;;;17.07;;
6342;SDS011;3204;42.698;23.298;2023-02-28T01:13:18;29.43;;;17.90;;
6342;SDS011;3204;42.698;23.298;2023-02-28T01:15:51;32.60;;;18.07;;
6342;SDS011;3204;42.698;23.298;2023-02-28T01:18:20;33.87;;;20.33;;
6342;SDS011;3204;42.698;23.298;2023-02-28T01:20:47;33.10;;;18.80;;
6342;SDS011;3204;42.698;23.298;2023-02-28T01:23:13;34.00;;;19.80;;
6342;SDS011;3204;42.698;23.298;2023-02-28T01:25:38;31.53;;;18.90;;
6342;SDS011;3204;42.698;23.298;2023-02-28T01:28:04;32.77;;;19.33;;
6342;SDS011;3204;42.698;23.298;2023-02-28T01:30:30;32.70;;;19.87;;
6342;SDS011;3204;42.698;23.298;2023-02-28T01:32:56;32.07;;;19.47;;
6342;SDS011;3204;42.698;23.298;2023-02-28T01:35:22;31.67;;;18.80;;
6342;SDS011;3204;42.698;23.298;2023-02-28T01:37:48;33.83;;;18.50;;
6342;SDS011;3204;42.698;23.298;2023-02-28T01:40:13;28.23;;;18.03;;
6342;SDS011;3204;42.698;23.298;2023-02-28T01:42:39;29.80;;;18.03;;
6342;SDS011;3204;42.698;23.298;2023-02-28T01:47:43;29.80;;;17.47;;
6342;SDS011;3204;42.698;23.298;2023-02-28T01:50:12;24.53;;;14.93;;
6342;SDS011;3204;42.698;23.298;2023-02-28T01:52:43;22.47;;;15.23;;
6342;SDS011;3204;42.698;23.298;2023-02-28T01:55:10;27.80;;;15.37;;
6342;SDS011;3204;42.698;23.298;2023-02-28T01:57:38;24.60;;;15.50;;
6342;SDS011;3204;42.698;23.298;2023-02-28T02:00:09;23.50;;;15.07;;
6342;SDS011;3204;42.698;23.298;2023-02-28T02:02:38;26.10;;;16.10;;
6342;SDS011;3204;42.698;23.298;2023-02-28T02:05:06;32.30;;;15.93;;
6342;SDS011;3204;42.698;23.298;2023-02-28T02:07:37;29.40;;;16.30;;
6342;SDS011;3204;42.698;23.298;2023-02-28T02:10:10;28.33;;;16.03;;
6342;SDS011;3204;42.698;23.298;2023-02-28T02:15:53;28.10;;;15.70;;
6342;SDS011;3204;42.698;23.298;2023-02-28T02:34:52;36.70;;;19.20;;
6342;SDS011;3204;42.698;23.298;2023-02-28T02:37:36;37.77;;;19.80;;
6342;SDS011;3204;42.698;23.298;2023-02-28T02:40:22;36.53;;;19.47;;
6342;SDS011;3204;42.698;23.298;2023-02-28T02:48:11;47.80;;;22.77;;
6342;SDS011;3204;42.698;23.298;2023-02-28T02:50:44;36.30;;;20.20;;
6342;SDS011;3204;42.698;23.298;2023-02-28T02:53:14;33.60;;;17.77;;
6342;SDS011;3204;42.698;23.298;2023-02-28T02:55:44;28.20;;;16.60;;
6342;SDS011;3204;42.698;23.298;2023-02-28T02:58:18;35.63;;;17.30;;
6342;SDS011;3204;42.698;23.298;2023-02-28T03:00:47;32.67;;;17.30;;
6342;SDS011;3204;42.698;23.298;2023-02-28T03:03:18;32.67;;;16.30;;
6342;SDS011;3204;42.698;23.298;2023-02-28T03:05:54;32.20;;;17.33;;
6342;SDS011;3204;42.698;23.298;2023-02-28T03:08:20;31.67;;;17.63;;
6342;SDS011;3204;42.698;23.298;2023-02-28T03:10:46;31.93;;;17.33;;
6342;SDS011;3204;42.698;23.298;2023-02-28T03:13:26;34.87;;;17.37;;
6342;SDS011;3204;42.698;23.298;2023-02-28T03:24:15;32.03;;;17.03;;
6342;SDS011;3204;42.698;23.298;2023-02-28T03:26:53;32.23;;;17.47;;
6342;SDS011;3204;42.698;23.298;2023-02-28T03:29:38;35.17;;;18.23;;
6342;SDS011;3204;42.698;23.298;2023-02-28T03:32:12;34.90;;;17.67;;
6342;SDS011;3204;42.698;23.298;2023-02-28T03:34:42;32.27;;;17.57;;
6342;SDS011;3204;42.698;23.298;2023-02-28T03:37:18;36.30;;;18.03;;
6342;SDS011;3204;42.698;23.298;2023-02-28T03:39:47;38.27;;;18.97;;
6342;SDS011;3204;42.698;23.298;2023-02-28T03:42:19;33.10;;;18.10;;
6342;SDS011;3204;42.698;23.298;2023-02-28T03:44:49;38.93;;;17.73;;
6342;SDS011;3204;42.698;23.298;2023-02-28T03:47:27;35.00;;;17.83;;
6342;SDS011;3204;42.698;23.298;2023-02-28T03:49:59;34.50;;;18.67;;
6342;SDS011;3204;42.698;23.298;2023-02-28T03:52:49;41.00;;;19.80;;
6342;SDS011;3204;42.698;23.298;2023-02-28T03:55:17;37.77;;;20.47;;
6342;SDS011;3204;42.698;23.298;2023-02-28T03:57:57;41.13;;;20.40;;
6342;SDS011;3204;42.698;23.298;2023-02-28T04:00:31;38.37;;;19.73;;
6342;SDS011;3204;42.698;23.298;2023-02-28T04:03:01;42.23;;;20.77;;
6342;SDS011;3204;42.698;23.298;2023-02-28T04:05:26;42.47;;;20.20;;
6342;SDS011;3204;42.698;23.298;2023-02-28T04:07:53;39.10;;;19.87;;
6342;SDS011;3204;42.698;23.298;2023-02-28T04:10:19;41.20;;;19.97;;
6342;SDS011;3204;42.698;23.298;2023-02-28T04:12:45;35.57;;;18.87;;
6342;SDS011;3204;42.698;23.298;2023-02-28T04:15:10;35.37;;;18.57;;
6342;SDS011;3204;42.698;23.298;2023-02-28T04:17:36;31.33;;;17.87;;
6342;SDS011;3204;42.698;23.298;2023-02-28T04:20:02;35.03;;;18.53;;
6342;SDS011;3204;42.698;23.298;2023-02-28T04:22:34;36.93;;;18.47;;
6342;SDS011;3204;42.698;23.298;2023-02-28T04:24:59;33.77;;;17.63;;
6342;SDS011;3204;42.698;23.298;2023-02-28T04:27:25;30.00;;;17.23;;
6342;SDS011;3204;42.698;23.298;2023-02-28T04:29:50;33.73;;;18.07;;
6342;SDS011;3204;42.698;23.298;2023-02-28T04:32:15;36.63;;;19.53;;
6342;SDS011;3204;42.698;23.298;2023-02-28T04:34:41;36.63;;;19.53;;
6342;SDS011;3204;42.698;23.298;2023-02-28T04:37:07;33.37;;;18.43;;
6342;SDS011;3204;42.698;23.298;2023-02-28T04:39:34;40.80;;;18.23;;
6342;SDS011;3204;42.698;23.298;2023-02-28T04:42:01;32.47;;;17.00;;
6342;SDS011;3204;42.698;23.298;2023-02-28T04:44:27;33.97;;;17.30;;
6342;SDS011;3204;42.698;23.298;2023-02-28T04:46:52;36.50;;;19.27;;
6342;SDS011;3204;42.698;23.298;2023-02-28T04:49:18;37.73;;;18.10;;
6342;SDS011;3204;42.698;23.298;2023-02-28T04:51:43;38.00;;;18.93;;
6342;SDS011;3204;42.698;23.298;2023-02-28T04:54:09;45.17;;;20.40;;
6342;SDS011;3204;42.698;23.298;2023-02-28T04:56:35;42.40;;;20.70;;
6342;SDS011;3204;42.698;23.298;2023-02-28T04:59:00;45.20;;;19.73;;
6342;SDS011;3204;42.698;23.298;2023-02-28T05:01:29;44.17;;;20.70;;
6342;SDS011;3204;42.698;23.298;2023-02-28T05:03:58;43.70;;;20.90;;
6342;SDS011;3204;42.698;23.298;2023-02-28T05:06:25;50.30;;;21.47;;
6342;SDS011;3204;42.698;23.298;2023-02-28T05:08:52;46.30;;;22.07;;
6342;SDS011;3204;42.698;23.298;2023-02-28T05:11:19;45.83;;;21.77;;
6342;SDS011;3204;42.698;23.298;2023-02-28T05:13:54;49.80;;;21.97;;
6342;SDS011;3204;42.698;23.298;2023-02-28T05:16:20;49.47;;;22.43;;
6342;SDS011;3204;42.698;23.298;2023-02-28T05:18:46;59.80;;;24.87;;
6342;SDS011;3204;42.698;23.298;2023-02-28T05:21:22;60.43;;;27.90;;
6342;SDS011;3204;42.698;23.298;2023-02-28T05:23:50;65.43;;;28.33;;
6342;SDS011;3204;42.698;23.298;2023-02-28T05:26:17;63.67;;;26.93;;
6342;SDS011;3204;42.698;23.298;2023-02-28T05:28:42;65.13;;;27.30;;
6342;SDS011;3204;42.698;23.298;2023-02-28T05:31:11;74.13;;;29.40;;
6342;SDS011;3204;42.698;23.298;2023-02-28T05:33:37;86.97;;;32.27;;
6342;SDS011;3204;42.698;23.298;2023-02-28T05:36:03;75.53;;;32.30;;
6342;SDS011;3204;42.698;23.298;2023-02-28T05:38:29;72.63;;;30.87;;
6342;SDS011;3204;42.698;23.298;2023-02-28T05:40:54;70.87;;;30.77;;
6342;SDS011;3204;42.698;23.298;2023-02-28T05:43:21;72.43;;;31.33;;
6342;SDS011;3204;42.698;23.298;2023-02-28T05:45:46;74.03;;;31.97;;
6342;SDS011;3204;42.698;23.298;2023-02-28T05:48:12;73.57;;;30.53;;
6342;SDS011;3204;42.698;23.298;2023-02-28T05:50:37;76.47;;;30.93;;
6342;SDS011;3204;42.698;23.298;2023-02-28T05:53:03;77.20;;;31.00;;
6342;SDS011;3204;42.698;23.298;2023-02-28T05:55:29;79.43;;;31.83;;
6342;SDS011;3204;42.698;23.298;2023-02-28T05:57:54;79.13;;;31.10;;
6342;SDS011;3204;42.698;23.298;2023-02-28T06:00:20;76.17;;;32.90;;
6342;SDS011;3204;42.698;23.298;2023-02-28T06:02:46;77.13;;;33.17;;
6342;SDS011;3204;42.698;23.298;2023-02-28T06:05:16;73.93;;;32.57;;
6342;SDS011;3204;42.698;23.298;2023-02-28T06:07:42;73.90;;;32.37;;
6342;SDS011;3204;42.698;23.298;2023-02-28T06:10:09;72.40;;;32.77;;
6342;SDS011;3204;42.698;23.298;2023-02-28T06:12:36;79.90;;;34.50;;
6342;SDS011;3204;42.698;23.298;2023-02-28T06:15:02;81.10;;;32.20;;
6342;SDS011;3204;42.698;23.298;2023-02-28T06:17:27;76.37;;;32.20;;
6342;SDS011;3204;42.698;23.298;2023-02-28T06:19:53;71.63;;;30.80;;
6342;SDS011;3204;42.698;23.298;2023-02-28T06:22:19;69.17;;;30.37;;
6342;SDS011;3204;42.698;23.298;2023-02-28T06:24:44;63.43;;;27.10;;
6342;SDS011;3204;42.698;23.298;2023-02-28T06:27:09;68.07;;;27.70;;
6342;SDS011;3204;42.698;23.298;2023-02-28T06:29:35;61.70;;;26.13;;
6342;SDS011;3204;42.698;23.298;2023-02-28T06:32:01;60.20;;;27.40;;
6342;SDS011;3204;42.698;23.298;2023-02-28T06:34:27;61.83;;;27.03;;
6342;SDS011;3204;42.698;23.298;2023-02-28T06:36:53;61.53;;;27.63;;
6342;SDS011;3204;42.698;23.298;2023-02-28T06:39:18;59.10;;;26.40;;
6342;SDS011;3204;42.698;23.298;2023-02-28T06:41:44;55.83;;;26.47;;
6342;SDS011;3204;42.698;23.298;2023-02-28T06:44:15;58.53;;;26.93;;
6342;SDS011;3204;42.698;23.298;2023-02-28T06:46:42;56.23;;;26.33;;
6342;SDS011;3204;42.698;23.298;2023-02-28T06:49:09;50.33;;;24.63;;
6342;SDS011;3204;42.698;23.298;2023-02-28T06:51:35;50.43;;;25.00;;
6342;SDS011;3204;42.698;23.298;2023-02-28T06:54:05;51.70;;;25.07;;
6342;SDS011;3204;42.698;23.298;2023-02-28T06:56:34;59.63;;;26.60;;
6342;SDS011;3204;42.698;23.298;2023-02-28T06:58:59;61.27;;;29.03;;
6342;SDS011;3204;42.698;23.298;2023-02-28T07:01:25;62.93;;;28.77;;
6342;SDS011;3204;42.698;23.298;2023-02-28T07:03:50;65.73;;;29.50;;
6342;SDS011;3204;42.698;23.298;2023-02-28T07:06:20;67.40;;;31.33;;
6342;SDS011;3204;42.698;23.298;2023-02-28T07:08:49;71.23;;;33.67;;
6342;SDS011;3204;42.698;23.298;2023-02-28T07:11:15;69.70;;;30.60;;
6342;SDS011;3204;42.698;23.298;2023-02-28T07:13:41;72.63;;;32.50;;
6342;SDS011;3204;42.698;23.298;2023-02-28T07:16:08;78.90;;;33.53;;
6342;SDS011;3204;42.698;23.298;2023-02-28T07:18:35;60.17;;;30.07;;
6342;SDS011;3204;42.698;23.298;2023-02-28T07:21:01;59.30;;;28.83;;
6342;SDS011;3204;42.698;23.298;2023-02-28T07:23:28;60.67;;;28.73;;
6342;SDS011;3204;42.698;23.298;2023-02-28T07:25:54;61.97;;;28.43;;
6342;SDS011;3204;42.698;23.298;2023-02-28T07:28:20;65.33;;;30.20;;
6342;SDS011;3204;42.698;23.298;2023-02-28T07:30:46;67.77;;;29.30;;
6342;SDS011;3204;42.698;23.298;2023-02-28T07:33:11;59.57;;;27.57;;
6342;SDS011;3204;42.698;23.298;2023-02-28T07:35:37;62.73;;;28.33;;
6342;SDS011;3204;42.698;23.298;2023-02-28T07:38:02;64.20;;;29.27;;
6342;SDS011;3204;42.698;23.298;2023-02-28T07:40:28;55.57;;;27.30;;
6342;SDS011;3204;42.698;23.298;2023-02-28T07:42:55;54.30;;;28.23;;
6342;SDS011;3204;42.698;23.298;2023-02-28T07:45:21;60.33;;;28.90;;
6342;SDS011;3204;42.698;23.298;2023-02-28T07:47:46;65.47;;;31.67;;
6342;SDS011;3204;42.698;23.298;2023-02-28T07:50:14;60.27;;;31.57;;
6342;SDS011;3204;42.698;23.298;2023-02-28T07:52:40;53.33;;;28.73;;
6342;SDS011;3204;42.698;23.298;2023-02-28T07:55:06;64.37;;;29.83;;
6342;SDS011;3204;42.698;23.298;2023-02-28T07:57:33;53.13;;;29.10;;
6342;SDS011;3204;42.698;23.298;2023-02-28T07:59:59;56.73;;;28.70;;
6342;SDS011;3204;42.698;23.298;2023-02-28T08:02:24;53.90;;;29.30;;
6342;SDS011;3204;42.698;23.298;2023-02-28T08:04:50;62.67;;;29.30;;
6342;SDS011;3204;42.698;23.298;2023-02-28T08:07:16;58.03;;;29.60;;
6342;SDS011;3204;42.698;23.298;2023-02-28T08:09:44;55.33;;;28.40;;
6342;SDS011;3204;42.698;23.298;2023-02-28T08:12:10;52.93;;;27.67;;
6342;SDS011;3204;42.698;23.298;2023-02-28T08:14:35;53.90;;;27.60;;
6342;SDS011;3204;42.698;23.298;2023-02-28T08:17:02;44.83;;;25.60;;
6342;SDS011;3204;42.698;23.298;2023-02-28T08:19:28;46.17;;;26.03;;
6342;SDS011;3204;42.698;23.298;2023-02-28T08:21:54;54.20;;;27.40;;
6342;SDS011;3204;42.698;23.298;2023-02-28T08:24:20;50.17;;;25.03;;
6342;SDS011;3204;42.698;23.298;2023-02-28T08:26:45;49.53;;;26.40;;
6342;SDS011;3204;42.698;23.298;2023-02-28T08:29:11;50.73;;;26.73;;
6342;SDS011;3204;42.698;23.298;2023-02-28T08:31:36;41.20;;;24.90;;
6342;SDS011;3204;42.698;23.298;2023-02-28T08:34:09;47.57;;;25.07;;
6342;SDS011;3204;42.698;23.298;2023-02-28T08:36:37;45.73;;;24.97;;
6342;SDS011;3204;42.698;23.298;2023-02-28T08:39:03;39.23;;;24.33;;
6342;SDS011;3204;42.698;23.298;2023-02-28T08:41:28;42.50;;;24.73;;
6342;SDS011;3204;42.698;23.298;2023-02-28T08:43:54;41.67;;;23.57;;
6342;SDS011;3204;42.698;23.298;2023-02-28T08:46:19;43.23;;;24.67;;
6342;SDS011;3204;42.698;23.298;2023-02-28T08:48:45;40.30;;;24.10;;
6342;SDS011;3204;42.698;23.298;2023-02-28T08:51:13;38.30;;;24.17;;
6342;SDS011;3204;42.698;23.298;2023-02-28T08:53:41;45.80;;;24.73;;
6342;SDS011;3204;42.698;23.298;2023-02-28T08:56:10;45.87;;;25.90;;
6342;SDS011;3204;42.698;23.298;2023-02-28T08:58:37;49.50;;;25.20;;
6342;SDS011;3204;42.698;23.298;2023-02-28T09:03:39;62.50;;;32.17;;
6342;SDS011;3204;42.698;23.298;2023-02-28T09:06:08;58.00;;;30.77;;
6342;SDS011;3204;42.698;23.298;2023-02-28T09:08:35;60.07;;;32.37;;
6342;SDS011;3204;42.698;23.298;2023-02-28T09:11:01;63.23;;;31.63;;
6342;SDS011;3204;42.698;23.298;2023-02-28T09:13:27;63.73;;;30.73;;
6342;SDS011;3204;42.698;23.298;2023-02-28T09:15:53;59.47;;;29.67;;
6342;SDS011;3204;42.698;23.298;2023-02-28T09:18:19;58.63;;;29.57;;
6342;SDS011;3204;42.698;23.298;2023-02-28T09:20:45;61.00;;;29.50;;
6342;SDS011;3204;42.698;23.298;2023-02-28T09:23:11;60.63;;;27.63;;
6342;SDS011;3204;42.698;23.298;2023-02-28T09:25:37;55.07;;;28.20;;
6342;SDS011;3204;42.698;23.298;2023-02-28T09:28:09;62.35;;;27.27;;
6342;SDS011;3204;42.698;23.298;2023-02-28T09:30:36;54.43;;;29.00;;
6342;SDS011;3204;42.698;23.298;2023-02-28T09:33:02;68.53;;;32.10;;
6342;SDS011;3204;42.698;23.298;2023-02-28T09:35:28;65.17;;;33.50;;
6342;SDS011;3204;42.698;23.298;2023-02-28T09:37:55;59.50;;;31.13;;
6342;SDS011;3204;42.698;23.298;2023-02-28T09:40:22;60.33;;;30.67;;
6342;SDS011;3204;42.698;23.298;2023-02-28T09:42:51;54.23;;;29.30;;
6342;SDS011;3204;42.698;23.298;2023-02-28T09:45:36;59.53;;;29.25;;
6342;SDS011;3204;42.698;23.298;2023-02-28T09:48:12;55.08;;;28.20;;
6342;SDS011;3204;42.698;23.298;2023-02-28T09:50:43;61.60;;;28.97;;
6342;SDS011;3204;42.698;23.298;2023-02-28T09:53:20;57.27;;;28.13;;
6342;SDS011;3204;42.698;23.298;2023-02-28T09:55:53;53.93;;;30.13;;
6342;SDS011;3204;42.698;23.298;2023-02-28T09:58:26;53.13;;;27.80;;
6342;SDS011;3204;42.698;23.298;2023-02-28T10:01:09;54.88;;;29.05;;
6342;SDS011;3204;42.698;23.298;2023-02-28T10:04:03;66.00;;;29.92;;
6342;SDS011;3204;42.698;23.298;2023-02-28T10:06:30;75.95;;;32.70;;
6342;SDS011;3204;42.698;23.298;2023-02-28T10:12:00;52.13;;;27.52;;
6342;SDS011;3204;42.698;23.298;2023-02-28T10:14:30;50.78;;;26.52;;
6342;SDS011;3204;42.698;23.298;2023-02-28T10:17:02;58.08;;;27.73;;
6342;SDS011;3204;42.698;23.298;2023-02-28T10:19:46;52.13;;;25.95;;
6342;SDS011;3204;42.698;23.298;2023-02-28T10:22:17;40.55;;;22.33;;
6342;SDS011;3204;42.698;23.298;2023-02-28T10:25:05;36.78;;;18.10;;
6342;SDS011;3204;42.698;23.298;2023-02-28T10:27:43;20.52;;;12.82;;
6342;SDS011;3204;42.698;23.298;2023-02-28T10:30:09;30.10;;;13.88;;
6342;SDS011;3204;42.698;23.298;2023-02-28T10:32:36;27.17;;;13.13;;
6342;SDS011;3204;42.698;23.298;2023-02-28T10:37:40;25.15;;;13.38;;
6342;SDS011;3204;42.698;23.298;2023-02-28T10:40:25;17.92;;;12.52;;
6342;SDS011;3204;42.698;23.298;2023-02-28T10:43:04;18.90;;;11.93;;
6342;SDS011;3204;42.698;23.298;2023-02-28T10:45:34;22.42;;;12.18;;
6342;SDS011;3204;42.698;23.298;2023-02-28T10:58:46;25.00;;;10.80;;
6342;SDS011;3204;42.698;23.298;2023-02-28T11:01:15;18.85;;;11.32;;
6342;SDS011;3204;42.698;23.298;2023-02-28T11:03:45;23.20;;;11.25;;
6342;SDS011;3204;42.698;23.298;2023-02-28T11:06:19;17.73;;;12.13;;
6342;SDS011;3204;42.698;23.298;2023-02-28T11:08:54;28.17;;;12.80;;
6342;SDS011;3204;42.698;23.298;2023-02-28T11:11:22;18.80;;;12.45;;
6342;SDS011;3204;42.698;23.298;2023-02-28T11:13:51;26.65;;;12.65;;
6342;SDS011;3204;42.698;23.298;2023-02-28T11:16:20;26.42;;;13.23;;
6342;SDS011;3204;42.698;23.298;2023-02-28T11:18:50;24.48;;;12.95;;
6342;SDS011;3204;42.698;23.298;2023-02-28T11:21:26;32.30;;;13.02;;
6342;SDS011;3204;42.698;23.298;2023-02-28T11:24:00;19.98;;;11.85;;
6342;SDS011;3204;42.698;23.298;2023-02-28T11:26:41;23.23;;;12.18;;
6342;SDS011;3204;42.698;23.298;2023-02-28T11:35:36;27.30;;;12.77;;
6342;SDS011;3204;42.698;23.298;2023-02-28T11:37:47;27.33;;;12.43;;
6342;SDS011;3204;42.698;23.298;2023-02-28T11:40:17;21.50;;;12.10;;
6342;SDS011;3204;42.698;23.298;2023-02-28T11:42:53;23.02;;;12.50;;
6342;SDS011;3204;42.698;23.298;2023-02-28T11:48:18;21.70;;;12.68;;
6342;SDS011;3204;42.698;23.298;2023-02-28T12:10:26;23.25;;;12.63;;
6342;SDS011;3204;42.698;23.298;2023-02-28T12:15:29;21.05;;;11.60;;
6342;SDS011;3204;42.698;23.298;2023-02-28T12:18:18;21.13;;;11.48;;
6342;SDS011;3204;42.698;23.298;2023-02-28T12:21:10;22.23;;;11.52;;
6342;SDS011;3204;42.698;23.298;2023-02-28T12:24:00;28.45;;;11.57;;
6342;SDS011;3204;42.698;23.298;2023-02-28T12:26:38;23.83;;;11.45;;
6342;SDS011;3204;42.698;23.298;2023-02-28T12:29:10;19.73;;;11.00;;
6342;SDS011;3204;42.698;23.298;2023-02-28T12:32:11;25.38;;;10.52;;
6342;SDS011;3204;42.698;23.298;2023-02-28T12:34:49;22.25;;;10.75;;
6342;SDS011;3204;42.698;23.298;2023-02-28T12:37:28;32.45;;;12.52;;
6342;SDS011;3204;42.698;23.298;2023-02-28T12:40:03;21.25;;;11.95;;
6342;SDS011;3204;42.698;23.298;2023-02-28T12:43:21;30.48;;;12.38;;
6342;SDS011;3204;42.698;23.298;2023-02-28T12:45:31;22.52;;;11.68;;
6342;SDS011;3204;42.698;23.298;2023-02-28T12:48:29;23.60;;;11.82;;
6342;SDS011;3204;42.698;23.298;2023-02-28T12:51:02;16.60;;;11.80;;
6342;SDS011;3204;42.698;23.298;2023-02-28T12:53:37;26.20;;;12.93;;
6342;SDS011;3204;42.698;23.298;2023-02-28T12:56:22;23.30;;;12.73;;
6342;SDS011;3204;42.698;23.298;2023-02-28T12:59:10;24.92;;;13.15;;
6342;SDS011;3204;42.698;23.298;2023-02-28T13:02:09;22.42;;;11.85;;
6342;SDS011;3204;42.698;23.298;2023-02-28T13:11:02;24.58;;;11.85;;
6342;SDS011;3204;42.698;23.298;2023-02-28T13:13:28;24.40;;;11.15;;
6342;SDS011;3204;42.698;23.298;2023-02-28T13:15:59;22.10;;;10.75;;
6342;SDS011;3204;42.698;23.298;2023-02-28T13:21:08;24.00;;;11.40;;
6342;SDS011;3204;42.698;23.298;2023-02-28T13:26:23;21.35;;;11.45;;
6342;SDS011;3204;42.698;23.298;2023-02-28T13:34:28;19.38;;;10.15;;
6342;SDS011;3204;42.698;23.298;2023-02-28T13:47:32;21.80;;;11.00;;
6342;SDS011;3204;42.698;23.298;2023-02-28T13:52:56;26.50;;;10.93;;
6342;SDS011;3204;42.698;23.298;2023-02-28T13:58:26;22.40;;;10.73;;
6342;SDS011;3204;42.698;23.298;2023-02-28T14:06:54;18.52;;;9.82;;
6342;SDS011;3204;42.698;23.298;2023-02-28T14:11:51;22.15;;;10.43;;
6342;SDS011;3204;42.698;23.298;2023-02-28T14:17:14;19.38;;;9.45;;
6342;SDS011;3204;42.698;23.298;2023-02-28T14:19:43;18.95;;;10.35;;
6342;SDS011;3204;42.698;23.298;2023-02-28T14:31:33;18.17;;;10.32;;
6342;SDS011;3204;42.698;23.298;2023-02-28T14:37:20;26.75;;;11.18;;
6342;SDS011;3204;42.698;23.298;2023-02-28T14:39:53;22.58;;;11.27;;
6342;SDS011;3204;42.698;23.298;2023-02-28T14:42:38;22.55;;;11.50;;
6342;SDS011;3204;42.698;23.298;2023-02-28T14:45:17;22.27;;;11.00;;
6342;SDS011;3204;42.698;23.298;2023-02-28T14:47:44;21.33;;;10.27;;
6342;SDS011;3204;42.698;23.298;2023-02-28T14:50:17;16.13;;;9.68;;
6342;SDS011;3204;42.698;23.298;2023-02-28T14:52:51;14.85;;;9.02;;
6342;SDS011;3204;42.698;23.298;2023-02-28T14:55:18;16.00;;;9.48;;
6342;SDS011;3204;42.698;23.298;2023-02-28T14:57:55;18.60;;;11.35;;
6342;SDS011;3204;42.698;23.298;2023-02-28T15:00:24;25.15;;;10.63;;
6342;SDS011;3204;42.698;23.298;2023-02-28T15:02:52;21.50;;;10.52;;
6342;SDS011;3204;42.698;23.298;2023-02-28T15:05:21;18.90;;;10.05;;
6342;SDS011;3204;42.698;23.298;2023-02-28T15:08:14;12.85;;;9.52;;
6342;SDS011;3204;42.698;23.298;2023-02-28T15:10:40;17.65;;;10.18;;
6342;SDS011;3204;42.698;23.298;2023-02-28T15:13:18;19.30;;;9.77;;
6342;SDS011;3204;42.698;23.298;2023-02-28T15:21:08;21.30;;;10.13;;
6342;SDS011;3204;42.698;23.298;2023-02-28T15:23:38;17.83;;;10.13;;
6342;SDS011;3204;42.698;23.298;2023-02-28T15:26:09;17.75;;;8.88;;
6342;SDS011;3204;42.698;23.298;2023-02-28T15:28:40;12.48;;;8.85;;
6342;SDS011;3204;42.698;23.298;2023-02-28T15:31:19;13.57;;;9.45;;
6342;SDS011;3204;42.698;23.298;2023-02-28T15:33:55;17.33;;;9.57;;
6342;SDS011;3204;42.698;23.298;2023-02-28T15:36:24;16.60;;;10.00;;
6342;SDS011;3204;42.698;23.298;2023-02-28T15:38:52;24.02;;;11.75;;
6342;SDS011;3204;42.698;23.298;2023-02-28T15:41:29;15.87;;;10.77;;
6342;SDS011;3204;42.698;23.298;2023-02-28T15:47:33;21.60;;;13.03;;
6342;SDS011;3204;42.698;23.298;2023-02-28T15:49:47;22.70;;;13.20;;
6342;SDS011;3204;42.698;23.298;2023-02-28T15:52:16;21.63;;;13.73;;
6342;SDS011;3204;42.698;23.298;2023-02-28T15:54:53;18.10;;;13.83;;
6342;SDS011;3204;42.698;23.298;2023-02-28T15:57:22;20.30;;;13.30;;
6342;SDS011;3204;42.698;23.298;2023-02-28T15:59:56;21.53;;;12.97;;
6342;SDS011;3204;42.698;23.298;2023-02-28T16:02:31;20.40;;;13.00;;
6342;SDS011;3204;42.698;23.298;2023-02-28T16:07:34;16.07;;;11.63;;
6342;SDS011;3204;42.698;23.298;2023-02-28T16:10:04;13.00;;;10.17;;
6342;SDS011;3204;42.698;23.298;2023-02-28T16:12:31;16.37;;;12.10;;
6342;SDS011;3204;42.698;23.298;2023-02-28T16:14:59;21.70;;;15.40;;
6342;SDS011;3204;42.698;23.298;2023-02-28T16:17:29;16.93;;;12.57;;
6342;SDS011;3204;42.698;23.298;2023-02-28T16:19:58;15.80;;;12.17;;
6342;SDS011;3204;42.698;23.298;2023-02-28T16:22:24;16.87;;;11.93;;
6342;SDS011;3204;42.698;23.298;2023-02-28T16:24:50;11.83;;;10.30;;
6342;SDS011;3204;42.698;23.298;2023-02-28T16:27:20;14.50;;;9.80;;
6342;SDS011;3204;42.698;23.298;2023-02-28T16:29:49;16.03;;;9.00;;
6342;SDS011;3204;42.698;23.298;2023-02-28T16:32:15;11.57;;;8.63;;
6342;SDS011;3204;42.698;23.298;2023-02-28T16:34:44;10.57;;;9.10;;
6342;SDS011;3204;42.698;23.298;2023-02-28T16:37:11;12.83;;;8.13;;
6342;SDS011;3204;42.698;23.298;2023-02-28T16:39:38;11.50;;;9.10;;
6342;SDS011;3204;42.698;23.298;2023-02-28T16:42:03;13.13;;;8.53;;
6342;SDS011;3204;42.698;23.298;2023-02-28T16:44:30;9.03;;;7.97;;
6342;SDS011;3204;42.698;23.298;2023-02-28T16:46:59;10.60;;;8.20;;
6342;SDS011;3204;42.698;23.298;2023-02-28T16:49:26;16.90;;;8.83;;
6342;SDS011;3204;42.698;23.298;2023-02-28T16:51:51;9.37;;;7.30;;
6342;SDS011;3204;42.698;23.298;2023-02-28T16:54:17;11.00;;;8.83;;
6342;SDS011;3204;42.698;23.298;2023-02-28T16:56:44;10.23;;;8.10;;
6342;SDS011;3204;42.698;23.298;2023-02-28T16:59:11;9.03;;;7.90;;
6342;SDS011;3204;42.698;23.298;2023-02-28T17:01:37;10.57;;;7.87;;
6342;SDS011;3204;42.698;23.298;2023-02-28T17:04:02;12.53;;;8.27;;
6342;SDS011;3204;42.698;23.298;2023-02-28T17:06:28;9.83;;;7.73;;
6342;SDS011;3204;42.698;23.298;2023-02-28T17:08:55;8.20;;;7.33;;
6342;SDS011;3204;42.698;23.298;2023-02-28T17:11:23;9.30;;;7.57;;
6342;SDS011;3204;42.698;23.298;2023-02-28T17:13:49;12.67;;;7.47;;
6342;SDS011;3204;42.698;23.298;2023-02-28T17:16:28;7.30;;;6.73;;
6342;SDS011;3204;42.698;23.298;2023-02-28T17:19:02;7.20;;;6.67;;
6342;SDS011;3204;42.698;23.298;2023-02-28T17:21:30;9.17;;;7.30;;
6342;SDS011;3204;42.698;23.298;2023-02-28T17:23:56;16.60;;;7.77;;